E77 weather

San Manuel Airport
San Manuel, Arizona, United States

Public forecast

Using degrees Fahrenheit for public forecast. Weather courtesy of forecast.io.

Closest aviation weather report (METAR) to San Manuel Airport

Closest report is Davis Monthan Air Force Base, 30.7 nm (56.8 km) SSW. Retrieved 2019/12/14 22:58 UTC (37 minutes ago):

KDMA 142258Z AUTO 29005KT 10SM CLR 22/06 A2985 RMK AO2 SLP085 T02160055

Closest aviation forecast (TAF) to San Manuel Airport

Closest forecast is Davis Monthan Air Force Base, 30.7 nm (56.8 km) SSW. Retrieved 2019/12/14 22:15 UTC (1 hour ago):

TAF KDMA 142201Z 1422/1604 26008KT 9999 SKC QNH2985INS BECMG 1505/1506 17008KT 9999 FEW160 QNH2983INS BECMG 1507/1508 17008KT 9999 SCT120 QNH2981INS BECMG 1512/1513 20008KT 9999 SKC QNH2980INS BECMG 1521/1522 28012G18KT 9999 FEW120 QNH2991INS TX22/1422Z TN08/1515Z